sensor_id;sensor_type;location;lat;lon;timestamp;P1;P2;P0
72307;PMS5003;60257;42.638;23.376;2023-03-14T00:01:18;26.75;25.50;18.00
72307;PMS5003;60257;42.638;23.376;2023-03-14T00:03:45;27.00;22.50;9.50
72307;PMS5003;60257;42.638;23.376;2023-03-14T00:06:11;36.75;30.00;17.00
72307;PMS5003;60257;42.638;23.376;2023-03-14T00:08:37;38.00;32.00;19.75
72307;PMS5003;60257;42.638;23.376;2023-03-14T00:11:08;40.25;37.75;23.50
72307;PMS5003;60257;42.638;23.376;2023-03-14T00:13:46;33.75;33.75;15.75
72307;PMS5003;60257;42.638;23.376;2023-03-14T00:16:15;40.00;37.00;23.00
72307;PMS5003;60257;42.638;23.376;2023-03-14T00:18:40;26.50;23.25;17.50
72307;PMS5003;60257;42.638;23.376;2023-03-14T00:21:07;33.50;30.50;19.25
72307;PMS5003;60257;42.638;23.376;2023-03-14T00:23:35;34.00;31.50;20.25
72307;PMS5003;60257;42.638;23.376;2023-03-14T00:26:03;31.50;29.75;19.00
72307;PMS5003;60257;42.638;23.376;2023-03-14T00:28:30;26.50;20.75;11.50
72307;PMS5003;60257;42.638;23.376;2023-03-14T00:30:56;34.00;32.25;22.00
72307;PMS5003;60257;42.638;23.376;2023-03-14T00:33:21;31.75;28.50;18.75
72307;PMS5003;60257;42.638;23.376;2023-03-14T00:35:57;37.00;30.25;18.25
72307;PMS5003;60257;42.638;23.376;2023-03-14T00:38:31;29.00;28.00;16.50
72307;PMS5003;60257;42.638;23.376;2023-03-14T00:40:57;26.75;24.75;13.00
72307;PMS5003;60257;42.638;23.376;2023-03-14T00:43:23;24.75;23.00;15.25
72307;PMS5003;60257;42.638;23.376;2023-03-14T00:45:49;35.00;31.75;17.50
72307;PMS5003;60257;42.638;23.376;2023-03-14T00:48:16;25.00;21.50;15.00
72307;PMS5003;60257;42.638;23.376;2023-03-14T00:50:42;29.25;27.00;15.00
72307;PMS5003;60257;42.638;23.376;2023-03-14T00:53:07;27.00;22.50;14.25
72307;PMS5003;60257;42.638;23.376;2023-03-14T00:55:36;28.75;22.50;14.00
72307;PMS5003;60257;42.638;23.376;2023-03-14T00:58:02;22.50;22.50;15.25
72307;PMS5003;60257;42.638;23.376;2023-03-14T01:00:28;26.50;24.75;15.25
72307;PMS5003;60257;42.638;23.376;2023-03-14T01:02:53;18.50;17.50;11.75
72307;PMS5003;60257;42.638;23.376;2023-03-14T01:05:19;26.75;24.25;14.75
72307;PMS5003;60257;42.638;23.376;2023-03-14T01:07:44;14.25;13.50;9.00
72307;PMS5003;60257;42.638;23.376;2023-03-14T01:10:10;27.25;26.25;15.25
72307;PMS5003;60257;42.638;23.376;2023-03-14T01:12:35;25.50;19.50;12.00
72307;PMS5003;60257;42.638;23.376;2023-03-14T01:15:01;25.75;22.00;12.75
72307;PMS5003;60257;42.638;23.376;2023-03-14T01:17:27;27.00;24.75;15.75
72307;PMS5003;60257;42.638;23.376;2023-03-14T01:19:52;23.00;22.50;16.50
72307;PMS5003;60257;42.638;23.376;2023-03-14T01:22:18;23.25;22.00;16.00
72307;PMS5003;60257;42.638;23.376;2023-03-14T01:24:43;32.50;28.25;18.50
72307;PMS5003;60257;42.638;23.376;2023-03-14T01:27:09;25.50;24.50;15.75
72307;PMS5003;60257;42.638;23.376;2023-03-14T01:29:34;14.00;14.00;11.75
72307;PMS5003;60257;42.638;23.376;2023-03-14T01:32:00;27.25;18.25;11.00
72307;PMS5003;60257;42.638;23.376;2023-03-14T01:34:25;31.50;25.00;15.75
72307;PMS5003;60257;42.638;23.376;2023-03-14T01:36:50;31.25;27.25;16.00
72307;PMS5003;60257;42.638;23.376;2023-03-14T01:39:16;30.50;28.00;19.75
72307;PMS5003;60257;42.638;23.376;2023-03-14T01:41:41;27.00;24.50;15.00
72307;PMS5003;60257;42.638;23.376;2023-03-14T01:44:11;33.50;31.75;21.25
72307;PMS5003;60257;42.638;23.376;2023-03-14T01:46:38;31.75;25.00;15.25
72307;PMS5003;60257;42.638;23.376;2023-03-14T01:49:07;33.75;29.00;15.00
72307;PMS5003;60257;42.638;23.376;2023-03-14T01:51:56;38.75;31.50;18.50
72307;PMS5003;60257;42.638;23.376;2023-03-14T01:54:28;37.75;32.25;19.00
72307;PMS5003;60257;42.638;23.376;2023-03-14T01:56:57;32.25;28.25;17.50
72307;PMS5003;60257;42.638;23.376;2023-03-14T01:59:29;40.25;35.25;21.00
72307;PMS5003;60257;42.638;23.376;2023-03-14T02:01:56;34.25;31.50;20.50
72307;PMS5003;60257;42.638;23.376;2023-03-14T02:04:23;42.25;33.50;20.00
72307;PMS5003;60257;42.638;23.376;2023-03-14T02:07:05;42.50;38.00;22.50
72307;PMS5003;60257;42.638;23.376;2023-03-14T02:09:38;49.50;39.00;22.00
72307;PMS5003;60257;42.638;23.376;2023-03-14T02:12:05;54.75;48.00;30.00
72307;PMS5003;60257;42.638;23.376;2023-03-14T02:14:33;60.25;49.25;31.00
72307;PMS5003;60257;42.638;23.376;2023-03-14T02:17:01;60.00;49.25;31.00
72307;PMS5003;60257;42.638;23.376;2023-03-14T02:19:36;53.50;43.50;28.25
72307;PMS5003;60257;42.638;23.376;2023-03-14T02:22:10;59.75;48.25;31.50
72307;PMS5003;60257;42.638;23.376;2023-03-14T02:27:27;66.25;51.00;32.00
72307;PMS5003;60257;42.638;23.376;2023-03-14T02:30:00;64.00;53.25;32.50
72307;PMS5003;60257;42.638;23.376;2023-03-14T02:32:30;61.75;49.75;31.50
72307;PMS5003;60257;42.638;23.376;2023-03-14T02:34:58;62.50;51.25;34.00
72307;PMS5003;60257;42.638;23.376;2023-03-14T02:37:30;55.25;46.25;29.00
72307;PMS5003;60257;42.638;23.376;2023-03-14T02:40:01;62.75;50.50;32.75
72307;PMS5003;60257;42.638;23.376;2023-03-14T02:42:29;58.75;50.00;32.00
72307;PMS5003;60257;42.638;23.376;2023-03-14T02:45:33;53.50;47.00;29.00
72307;PMS5003;60257;42.638;23.376;2023-03-14T02:47:54;65.00;50.00;30.50
72307;PMS5003;60257;42.638;23.376;2023-03-14T02:50:28;66.00;51.25;32.00
72307;PMS5003;60257;42.638;23.376;2023-03-14T02:52:58;60.50;47.50;28.00
72307;PMS5003;60257;42.638;23.376;2023-03-14T02:55:24;52.25;46.50;28.75
72307;PMS5003;60257;42.638;23.376;2023-03-14T02:57:51;54.00;46.00;28.25
72307;PMS5003;60257;42.638;23.376;2023-03-14T03:00:17;57.25;47.50;28.25
72307;PMS5003;60257;42.638;23.376;2023-03-14T03:02:44;49.50;45.25;29.25
72307;PMS5003;60257;42.638;23.376;2023-03-14T03:05:10;61.75;47.75;29.25
72307;PMS5003;60257;42.638;23.376;2023-03-14T03:07:36;48.25;44.50;26.50
72307;PMS5003;60257;42.638;23.376;2023-03-14T03:10:01;62.75;50.25;31.50
72307;PMS5003;60257;42.638;23.376;2023-03-14T03:12:27;56.50;47.50;30.25
72307;PMS5003;60257;42.638;23.376;2023-03-14T03:14:52;63.75;49.25;31.50
72307;PMS5003;60257;42.638;23.376;2023-03-14T03:17:18;58.75;47.25;28.25
72307;PMS5003;60257;42.638;23.376;2023-03-14T03:19:43;54.25;43.00;30.25
72307;PMS5003;60257;42.638;23.376;2023-03-14T03:22:09;58.50;48.00;30.00
72307;PMS5003;60257;42.638;23.376;2023-03-14T03:24:34;53.50;47.00;28.25
72307;PMS5003;60257;42.638;23.376;2023-03-14T03:27:00;54.75;47.50;30.75
72307;PMS5003;60257;42.638;23.376;2023-03-14T03:29:25;58.75;47.00;28.75
72307;PMS5003;60257;42.638;23.376;2023-03-14T03:31:51;46.25;42.75;31.00
72307;PMS5003;60257;42.638;23.376;2023-03-14T03:34:16;47.00;43.50;24.75
72307;PMS5003;60257;42.638;23.376;2023-03-14T03:36:42;48.50;42.00;20.50
72307;PMS5003;60257;42.638;23.376;2023-03-14T03:39:07;51.00;46.50;29.50
72307;PMS5003;60257;42.638;23.376;2023-03-14T03:41:33;60.50;49.75;31.00
72307;PMS5003;60257;42.638;23.376;2023-03-14T03:43:58;67.50;52.00;31.00
72307;PMS5003;60257;42.638;23.376;2023-03-14T03:46:24;51.75;47.25;29.00
72307;PMS5003;60257;42.638;23.376;2023-03-14T03:48:56;49.50;45.75;28.25
72307;PMS5003;60257;42.638;23.376;2023-03-14T03:51:23;52.50;46.25;29.00
72307;PMS5003;60257;42.638;23.376;2023-03-14T03:53:49;48.75;42.00;24.25
72307;PMS5003;60257;42.638;23.376;2023-03-14T03:56:15;54.50;43.00;28.00
72307;PMS5003;60257;42.638;23.376;2023-03-14T03:58:40;56.00;46.25;29.00
72307;PMS5003;60257;42.638;23.376;2023-03-14T04:01:07;49.75;43.00;24.50
72307;PMS5003;60257;42.638;23.376;2023-03-14T04:03:33;50.50;44.25;29.25
72307;PMS5003;60257;42.638;23.376;2023-03-14T04:06:03;51.00;43.00;27.50
72307;PMS5003;60257;42.638;23.376;2023-03-14T04:08:36;44.25;40.25;23.50
72307;PMS5003;60257;42.638;23.376;2023-03-14T04:11:03;50.25;43.00;28.50
72307;PMS5003;60257;42.638;23.376;2023-03-14T04:13:28;60.75;48.25;32.00
72307;PMS5003;60257;42.638;23.376;2023-03-14T04:15:54;56.75;46.75;27.75
72307;PMS5003;60257;42.638;23.376;2023-03-14T04:18:20;55.75;46.25;27.75
72307;PMS5003;60257;42.638;23.376;2023-03-14T04:20:50;59.75;46.50;29.00
72307;PMS5003;60257;42.638;23.376;2023-03-14T04:23:17;49.25;44.25;29.00
72307;PMS5003;60257;42.638;23.376;2023-03-14T04:25:42;58.75;51.00;32.00
72307;PMS5003;60257;42.638;23.376;2023-03-14T04:28:08;59.75;49.50;32.00
72307;PMS5003;60257;42.638;23.376;2023-03-14T04:30:33;57.00;47.25;30.75
72307;PMS5003;60257;42.638;23.376;2023-03-14T04:32:58;56.00;47.25;32.25
72307;PMS5003;60257;42.638;23.376;2023-03-14T04:35:24;57.50;48.75;32.00
72307;PMS5003;60257;42.638;23.376;2023-03-14T04:37:49;63.75;52.00;32.50
72307;PMS5003;60257;42.638;23.376;2023-03-14T04:40:16;51.25;44.25;27.75
72307;PMS5003;60257;42.638;23.376;2023-03-14T04:42:42;50.00;47.00;31.50
72307;PMS5003;60257;42.638;23.376;2023-03-14T04:45:08;54.50;45.00;27.50
72307;PMS5003;60257;42.638;23.376;2023-03-14T04:47:34;48.25;43.00;28.00
72307;PMS5003;60257;42.638;23.376;2023-03-14T04:49:59;50.00;44.25;29.50
72307;PMS5003;60257;42.638;23.376;2023-03-14T04:52:25;58.75;47.50;32.00
72307;PMS5003;60257;42.638;23.376;2023-03-14T04:54:52;66.75;50.50;31.00
72307;PMS5003;60257;42.638;23.376;2023-03-14T04:57:17;68.50;54.25;33.00
72307;PMS5003;60257;42.638;23.376;2023-03-14T04:59:43;57.75;49.75;30.25
72307;PMS5003;60257;42.638;23.376;2023-03-14T05:02:08;33.50;26.00;10.50
72307;PMS5003;60257;42.638;23.376;2023-03-14T05:04:34;65.25;52.75;34.75
72307;PMS5003;60257;42.638;23.376;2023-03-14T05:06:59;66.00;54.50;35.75
72307;PMS5003;60257;42.638;23.376;2023-03-14T05:09:25;71.25;54.50;35.25
72307;PMS5003;60257;42.638;23.376;2023-03-14T05:11:51;54.75;48.25;31.75
72307;PMS5003;60257;42.638;23.376;2023-03-14T05:14:16;57.50;48.50;29.50
72307;PMS5003;60257;42.638;23.376;2023-03-14T05:16:42;47.50;46.25;29.75
72307;PMS5003;60257;42.638;23.376;2023-03-14T05:19:07;55.25;46.50;28.50
72307;PMS5003;60257;42.638;23.376;2023-03-14T05:21:33;43.50;42.00;28.00
72307;PMS5003;60257;42.638;23.376;2023-03-14T05:23:58;65.50;53.25;32.50
72307;PMS5003;60257;42.638;23.376;2023-03-14T05:26:24;55.00;48.50;31.75
72307;PMS5003;60257;42.638;23.376;2023-03-14T05:28:49;63.25;49.50;31.50
72307;PMS5003;60257;42.638;23.376;2023-03-14T05:31:14;60.00;47.25;32.75
72307;PMS5003;60257;42.638;23.376;2023-03-14T05:33:40;43.25;35.25;24.25
72307;PMS5003;60257;42.638;23.376;2023-03-14T05:36:06;54.50;43.00;28.00
72307;PMS5003;60257;42.638;23.376;2023-03-14T05:38:32;43.50;40.00;23.50
72307;PMS5003;60257;42.638;23.376;2023-03-14T05:40:58;48.25;39.50;25.75
72307;PMS5003;60257;42.638;23.376;2023-03-14T05:43:23;28.00;23.25;13.75
72307;PMS5003;60257;42.638;23.376;2023-03-14T05:45:48;56.75;49.75;32.75
72307;PMS5003;60257;42.638;23.376;2023-03-14T05:48:14;30.75;27.25;16.75
72307;PMS5003;60257;42.638;23.376;2023-03-14T05:50:39;31.00;28.75;19.00
72307;PMS5003;60257;42.638;23.376;2023-03-14T05:53:05;55.00;47.75;32.00
72307;PMS5003;60257;42.638;23.376;2023-03-14T05:55:30;34.25;32.50;18.50
72307;PMS5003;60257;42.638;23.376;2023-03-14T05:57:56;35.75;33.00;20.75
72307;PMS5003;60257;42.638;23.376;2023-03-14T06:00:21;35.50;32.50;18.00
72307;PMS5003;60257;42.638;23.376;2023-03-14T06:02:47;35.50;31.50;19.00
72307;PMS5003;60257;42.638;23.376;2023-03-14T06:05:12;38.25;30.75;19.00
72307;PMS5003;60257;42.638;23.376;2023-03-14T06:07:38;29.25;27.75;20.75
72307;PMS5003;60257;42.638;23.376;2023-03-14T06:10:03;41.25;34.75;21.00
72307;PMS5003;60257;42.638;23.376;2023-03-14T06:12:30;33.75;31.75;23.00
72307;PMS5003;60257;42.638;23.376;2023-03-14T06:14:55;37.75;36.25;22.25
72307;PMS5003;60257;42.638;23.376;2023-03-14T06:17:21;39.00;33.25;19.50
72307;PMS5003;60257;42.638;23.376;2023-03-14T06:19:46;31.50;30.75;19.00
72307;PMS5003;60257;42.638;23.376;2023-03-14T06:22:12;36.75;35.00;20.25
72307;PMS5003;60257;42.638;23.376;2023-03-14T06:24:37;37.25;37.25;22.50
72307;PMS5003;60257;42.638;23.376;2023-03-14T06:27:03;35.50;32.50;19.25
72307;PMS5003;60257;42.638;23.376;2023-03-14T06:29:29;35.75;35.75;24.00
72307;PMS5003;60257;42.638;23.376;2023-03-14T06:31:54;42.00;38.00;25.25
72307;PMS5003;60257;42.638;23.376;2023-03-14T06:34:20;39.00;34.25;19.25
72307;PMS5003;60257;42.638;23.376;2023-03-14T06:36:46;39.00;39.00;22.00
72307;PMS5003;60257;42.638;23.376;2023-03-14T06:39:11;39.25;31.50;21.00
72307;PMS5003;60257;42.638;23.376;2023-03-14T06:41:37;32.75;29.50;18.75
72307;PMS5003;60257;42.638;23.376;2023-03-14T06:44:02;39.00;35.75;24.75
72307;PMS5003;60257;42.638;23.376;2023-03-14T06:46:28;29.00;28.75;20.75
72307;PMS5003;60257;42.638;23.376;2023-03-14T06:48:53;41.25;36.75;24.50
72307;PMS5003;60257;42.638;23.376;2023-03-14T06:51:19;37.25;35.25;20.25
72307;PMS5003;60257;42.638;23.376;2023-03-14T06:53:44;37.50;34.25;22.00
72307;PMS5003;60257;42.638;23.376;2023-03-14T06:56:10;38.25;33.75;21.50
72307;PMS5003;60257;42.638;23.376;2023-03-14T06:58:35;28.50;26.50;16.50
72307;PMS5003;60257;42.638;23.376;2023-03-14T07:01:01;35.50;35.50;22.00
72307;PMS5003;60257;42.638;23.376;2023-03-14T07:03:26;35.75;32.75;20.00
72307;PMS5003;60257;42.638;23.376;2023-03-14T07:05:52;39.50;30.50;19.75
72307;PMS5003;60257;42.638;23.376;2023-03-14T07:08:18;22.25;20.75;17.50
72307;PMS5003;60257;42.638;23.376;2023-03-14T07:10:44;42.50;34.75;21.00
72307;PMS5003;60257;42.638;23.376;2023-03-14T07:13:09;38.00;29.50;15.75
72307;PMS5003;60257;42.638;23.376;2023-03-14T07:15:35;31.50;30.75;20.25
72307;PMS5003;60257;42.638;23.376;2023-03-14T07:18:01;41.25;39.25;21.75
72307;PMS5003;60257;42.638;23.376;2023-03-14T07:20:26;44.25;40.25;26.50
72307;PMS5003;60257;42.638;23.376;2023-03-14T07:22:52;42.00;39.00;24.75
72307;PMS5003;60257;42.638;23.376;2023-03-14T07:25:17;41.25;38.00;26.50
72307;PMS5003;60257;42.638;23.376;2023-03-14T07:27:43;50.00;43.25;26.00
72307;PMS5003;60257;42.638;23.376;2023-03-14T07:30:10;34.75;31.00;18.50
72307;PMS5003;60257;42.638;23.376;2023-03-14T07:32:36;42.75;39.00;24.00
72307;PMS5003;60257;42.638;23.376;2023-03-14T07:35:02;49.25;44.75;26.00
72307;PMS5003;60257;42.638;23.376;2023-03-14T07:37:28;48.25;39.00;24.75
72307;PMS5003;60257;42.638;23.376;2023-03-14T07:39:53;48.00;42.50;27.00
72307;PMS5003;60257;42.638;23.376;2023-03-14T07:42:19;34.00;29.00;17.25
72307;PMS5003;60257;42.638;23.376;2023-03-14T07:44:44;43.50;38.75;19.25
72307;PMS5003;60257;42.638;23.376;2023-03-14T07:47:10;49.00;41.50;26.75
72307;PMS5003;60257;42.638;23.376;2023-03-14T07:49:35;37.25;37.25;23.25
72307;PMS5003;60257;42.638;23.376;2023-03-14T07:52:01;36.50;33.75;22.75
72307;PMS5003;60257;42.638;23.376;2023-03-14T07:54:26;39.50;38.50;26.00
72307;PMS5003;60257;42.638;23.376;2023-03-14T07:56:52;42.50;33.00;21.25
72307;PMS5003;60257;42.638;23.376;2023-03-14T07:59:17;33.50;30.25;20.75
72307;PMS5003;60257;42.638;23.376;2023-03-14T08:01:43;36.25;35.75;23.00
72307;PMS5003;60257;42.638;23.376;2023-03-14T08:04:09;34.75;33.00;19.00
72307;PMS5003;60257;42.638;23.376;2023-03-14T08:06:35;28.75;24.25;15.00
72307;PMS5003;60257;42.638;23.376;2023-03-14T08:09:01;40.00;36.25;23.25
72307;PMS5003;60257;42.638;23.376;2023-03-14T08:11:27;42.50;39.50;24.50
72307;PMS5003;60257;42.638;23.376;2023-03-14T08:13:52;39.00;36.25;21.75
72307;PMS5003;60257;42.638;23.376;2023-03-14T08:16:19;50.00;41.25;28.50
72307;PMS5003;60257;42.638;23.376;2023-03-14T08:18:45;53.25;46.25;27.25
72307;PMS5003;60257;42.638;23.376;2023-03-14T08:21:11;49.50;44.75;30.00
72307;PMS5003;60257;42.638;23.376;2023-03-14T08:23:37;53.75;42.25;29.25
72307;PMS5003;60257;42.638;23.376;2023-03-14T08:26:03;56.50;45.00;29.50
72307;PMS5003;60257;42.638;23.376;2023-03-14T08:28:29;55.50;46.50;29.00
72307;PMS5003;60257;42.638;23.376;2023-03-14T08:30:59;56.50;45.00;29.00
72307;PMS5003;60257;42.638;23.376;2023-03-14T08:33:26;54.50;46.50;26.25
72307;PMS5003;60257;42.638;23.376;2023-03-14T08:35:53;51.25;42.50;28.50
72307;PMS5003;60257;42.638;23.376;2023-03-14T08:38:19;45.75;40.00;25.50
72307;PMS5003;60257;42.638;23.376;2023-03-14T08:40:44;53.25;45.50;28.50
72307;PMS5003;60257;42.638;23.376;2023-03-14T08:43:10;55.00;44.75;28.75
72307;PMS5003;60257;42.638;23.376;2023-03-14T08:45:35;54.25;45.50;27.00
72307;PMS5003;60257;42.638;23.376;2023-03-14T08:48:00;48.00;41.00;27.00
72307;PMS5003;60257;42.638;23.376;2023-03-14T08:50:26;60.25;51.00;31.00
72307;PMS5003;60257;42.638;23.376;2023-03-14T08:52:51;48.00;37.75;25.00
72307;PMS5003;60257;42.638;23.376;2023-03-14T08:55:17;52.25;45.25;28.50
72307;PMS5003;60257;42.638;23.376;2023-03-14T08:57:43;48.75;42.00;28.00
72307;PMS5003;60257;42.638;23.376;2023-03-14T09:00:08;54.00;44.25;28.25
72307;PMS5003;60257;42.638;23.376;2023-03-14T09:02:37;49.25;41.50;24.75
72307;PMS5003;60257;42.638;23.376;2023-03-14T09:05:03;49.00;42.00;27.25
72307;PMS5003;60257;42.638;23.376;2023-03-14T09:07:29;49.75;44.25;27.00
72307;PMS5003;60257;42.638;23.376;2023-03-14T09:09:55;46.75;41.50;26.50
72307;PMS5003;60257;42.638;23.376;2023-03-14T09:12:20;54.00;44.50;26.50
72307;PMS5003;60257;42.638;23.376;2023-03-14T09:14:46;53.25;43.25;27.75
72307;PMS5003;60257;42.638;23.376;2023-03-14T09:17:11;48.50;42.75;27.25
72307;PMS5003;60257;42.638;23.376;2023-03-14T09:19:37;46.50;39.25;24.50
72307;PMS5003;60257;42.638;23.376;2023-03-14T09:22:02;51.50;38.50;23.50
72307;PMS5003;60257;42.638;23.376;2023-03-14T09:24:28;38.00;36.00;23.00
72307;PMS5003;60257;42.638;23.376;2023-03-14T09:26:54;44.00;40.25;26.00
72307;PMS5003;60257;42.638;23.376;2023-03-14T09:29:20;47.67;42.33;24.33
72307;PMS5003;60257;42.638;23.376;2023-03-14T09:31:47;47.00;40.33;27.00
72307;PMS5003;60257;42.638;23.376;2023-03-14T09:34:13;44.00;41.00;27.00
72307;PMS5003;60257;42.638;23.376;2023-03-14T09:36:38;41.00;38.00;24.33
72307;PMS5003;60257;42.638;23.376;2023-03-14T09:39:04;47.33;38.67;24.00
72307;PMS5003;60257;42.638;23.376;2023-03-14T09:41:35;42.00;37.33;24.33
72307;PMS5003;60257;42.638;23.376;2023-03-14T09:44:14;43.33;36.33;24.00
72307;PMS5003;60257;42.638;23.376;2023-03-14T09:46:46;29.00;29.00;18.33
72307;PMS5003;60257;42.638;23.376;2023-03-14T09:49:23;23.33;22.33;11.67
72307;PMS5003;60257;42.638;23.376;2023-03-14T09:51:53;33.33;29.33;18.67
72307;PMS5003;60257;42.638;23.376;2023-03-14T09:54:42;30.67;30.00;18.00
72307;PMS5003;60257;42.638;23.376;2023-03-14T09:57:20;31.33;28.00;18.00
72307;PMS5003;60257;42.638;23.376;2023-03-14T09:59:48;22.67;20.33;16.33
72307;PMS5003;60257;42.638;23.376;2023-03-14T10:02:17;30.33;27.33;18.33
72307;PMS5003;60257;42.638;23.376;2023-03-14T10:04:48;33.33;32.00;21.67
72307;PMS5003;60257;42.638;23.376;2023-03-14T10:07:16;32.00;30.00;19.00
72307;PMS5003;60257;42.638;23.376;2023-03-14T10:09:50;27.67;25.33;17.00
72307;PMS5003;60257;42.638;23.376;2023-03-14T10:12:16;26.00;22.00;13.00
72307;PMS5003;60257;42.638;23.376;2023-03-14T10:14:50;30.67;28.67;17.00
72307;PMS5003;60257;42.638;23.376;2023-03-14T10:17:21;24.67;24.33;16.00
72307;PMS5003;60257;42.638;23.376;2023-03-14T10:19:51;29.00;27.33;18.00
72307;PMS5003;60257;42.638;23.376;2023-03-14T10:22:21;27.33;27.00;17.00
72307;PMS5003;60257;42.638;23.376;2023-03-14T10:24:52;25.33;24.33;15.67
72307;PMS5003;60257;42.638;23.376;2023-03-14T10:27:22;28.33;27.00;16.33
72307;PMS5003;60257;42.638;23.376;2023-03-14T10:29:54;28.67;26.67;15.67
72307;PMS5003;60257;42.638;23.376;2023-03-14T10:32:33;25.33;24.33;16.67
72307;PMS5003;60257;42.638;23.376;2023-03-14T10:43:16;32.00;30.00;15.00
72307;PMS5003;60257;42.638;23.376;2023-03-14T10:45:56;18.00;17.00;11.00
72307;PMS5003;60257;42.638;23.376;2023-03-14T10:53:46;19.00;17.33;11.00
72307;PMS5003;60257;42.638;23.376;2023-03-14T10:56:20;15.00;12.00;6.00
72307;PMS5003;60257;42.638;23.376;2023-03-14T10:58:51;14.00;13.00;10.00
72307;PMS5003;60257;42.638;23.376;2023-03-14T11:09:32;15.33;13.00;8.67
72307;PMS5003;60257;42.638;23.376;2023-03-14T11:15:09;15.33;14.33;9.33
72307;PMS5003;60257;42.638;23.376;2023-03-14T11:28:58;14.00;14.00;10.00
72307;PMS5003;60257;42.638;23.376;2023-03-14T11:31:36;13.33;11.67;6.67
72307;PMS5003;60257;42.638;23.376;2023-03-14T11:39:39;12.00;12.00;7.67
72307;PMS5003;60257;42.638;23.376;2023-03-14T11:42:14;13.00;11.00;8.00
72307;PMS5003;60257;42.638;23.376;2023-03-14T11:44:42;16.33;15.00;10.00
72307;PMS5003;60257;42.638;23.376;2023-03-14T11:55:07;12.67;11.00;8.00
72307;PMS5003;60257;42.638;23.376;2023-03-14T11:57:42;9.33;9.00;7.00
72307;PMS5003;60257;42.638;23.376;2023-03-14T12:00:19;16.33;15.33;9.67
72307;PMS5003;60257;42.638;23.376;2023-03-14T12:02:57;14.67;14.67;9.33
72307;PMS5003;60257;42.638;23.376;2023-03-14T12:05:39;15.00;14.00;9.67
72307;PMS5003;60257;42.638;23.376;2023-03-14T12:11:21;17.67;15.00;9.00
72307;PMS5003;60257;42.638;23.376;2023-03-14T12:14:02;10.33;10.33;7.00
72307;PMS5003;60257;42.638;23.376;2023-03-14T12:16:37;14.67;14.67;9.00
72307;PMS5003;60257;42.638;23.376;2023-03-14T12:19:13;9.75;9.75;7.00
72307;PMS5003;60257;42.638;23.376;2023-03-14T12:21:49;11.00;9.67;6.00
72307;PMS5003;60257;42.638;23.376;2023-03-14T12:24:21;13.00;12.67;7.00
72307;PMS5003;60257;42.638;23.376;2023-03-14T12:26:54;6.00;6.00;2.50
72307;PMS5003;60257;42.638;23.376;2023-03-14T12:29:22;9.75;7.75;5.75
72307;PMS5003;60257;42.638;23.376;2023-03-14T12:31:49;8.50;8.50;5.25
72307;PMS5003;60257;42.638;23.376;2023-03-14T12:34:34;8.50;8.00;5.50
72307;PMS5003;60257;42.638;23.376;2023-03-14T12:45:29;8.00;8.00;5.00
72307;PMS5003;60257;42.638;23.376;2023-03-14T12:48:03;6.50;6.50;5.00
72307;PMS5003;60257;42.638;23.376;2023-03-14T12:50:38;8.50;7.00;4.00
72307;PMS5003;60257;42.638;23.376;2023-03-14T12:53:17;8.75;7.00;5.75
72307;PMS5003;60257;42.638;23.376;2023-03-14T12:58:38;8.00;6.75;6.00
72307;PMS5003;60257;42.638;23.376;2023-03-14T13:01:15;8.00;8.00;5.25
72307;PMS5003;60257;42.638;23.376;2023-03-14T13:03:58;7.50;6.00;4.25
72307;PMS5003;60257;42.638;23.376;2023-03-14T13:06:44;8.25;8.25;4.75
72307;PMS5003;60257;42.638;23.376;2023-03-14T13:12:00;7.00;7.00;5.00
72307;PMS5003;60257;42.638;23.376;2023-03-14T13:14:30;9.75;8.00;5.00
72307;PMS5003;60257;42.638;23.376;2023-03-14T13:16:59;7.00;6.00;4.00
72307;PMS5003;60257;42.638;23.376;2023-03-14T13:19:26;8.75;8.00;4.25
72307;PMS5003;60257;42.638;23.376;2023-03-14T13:22:04;6.00;6.00;5.00
72307;PMS5003;60257;42.638;23.376;2023-03-14T13:24:46;9.25;8.00;4.75
72307;PMS5003;60257;42.638;23.376;2023-03-14T13:27:16;8.00;6.25;4.75
72307;PMS5003;60257;42.638;23.376;2023-03-14T13:29:45;8.00;7.00;4.00
72307;PMS5003;60257;42.638;23.376;2023-03-14T13:32:20;8.50;5.50;3.00
72307;PMS5003;60257;42.638;23.376;2023-03-14T13:34:47;9.00;9.00;6.00
72307;PMS5003;60257;42.638;23.376;2023-03-14T13:37:17;7.25;7.25;5.00
72307;PMS5003;60257;42.638;23.376;2023-03-14T13:39:51;8.00;8.00;5.00
72307;PMS5003;60257;42.638;23.376;2023-03-14T13:42:18;10.50;8.75;5.50
72307;PMS5003;60257;42.638;23.376;2023-03-14T13:44:44;9.00;9.00;5.25
72307;PMS5003;60257;42.638;23.376;2023-03-14T13:47:12;9.00;7.25;4.00
72307;PMS5003;60257;42.638;23.376;2023-03-14T13:49:44;8.00;7.50;4.75
72307;PMS5003;60257;42.638;23.376;2023-03-14T13:52:24;7.00;7.00;5.00
72307;PMS5003;60257;42.638;23.376;2023-03-14T13:54:53;6.50;6.50;3.25
72307;PMS5003;60257;42.638;23.376;2023-03-14T13:57:20;5.50;5.50;3.00
72307;PMS5003;60257;42.638;23.376;2023-03-14T14:00:04;6.00;6.00;3.75
72307;PMS5003;60257;42.638;23.376;2023-03-14T14:02:34;6.50;5.00;3.00
72307;PMS5003;60257;42.638;23.376;2023-03-14T14:05:03;7.50;7.50;4.75
72307;PMS5003;60257;42.638;23.376;2023-03-14T14:07:29;7.75;7.75;5.00
72307;PMS5003;60257;42.638;23.376;2023-03-14T14:09:55;8.75;8.00;5.00
72307;PMS5003;60257;42.638;23.376;2023-03-14T14:12:25;7.00;6.00;4.00
72307;PMS5003;60257;42.638;23.376;2023-03-14T14:15:00;12.25;8.00;5.00
72307;PMS5003;60257;42.638;23.376;2023-03-14T14:17:34;7.00;7.00;4.00
72307;PMS5003;60257;42.638;23.376;2023-03-14T14:20:05;5.50;5.50;4.00
72307;PMS5003;60257;42.638;23.376;2023-03-14T14:22:36;8.50;7.25;5.25
72307;PMS5003;60257;42.638;23.376;2023-03-14T14:25:01;6.25;6.25;4.00
72307;PMS5003;60257;42.638;23.376;2023-03-14T14:27:29;9.75;7.00;4.50
72307;PMS5003;60257;42.638;23.376;2023-03-14T14:30:02;6.50;6.50;4.00
72307;PMS5003;60257;42.638;23.376;2023-03-14T14:32:50;9.00;7.25;4.00
72307;PMS5003;60257;42.638;23.376;2023-03-14T14:35:26;7.00;7.00;5.00
72307;PMS5003;60257;42.638;23.376;2023-03-14T14:37:58;18.00;17.25;9.00
72307;PMS5003;60257;42.638;23.376;2023-03-14T14:40:25;20.33;20.33;11.33
72307;PMS5003;60257;42.638;23.376;2023-03-14T14:42:53;12.25;10.50;6.75
72307;PMS5003;60257;42.638;23.376;2023-03-14T14:45:20;6.75;5.50;4.75
72307;PMS5003;60257;42.638;23.376;2023-03-14T14:47:52;8.75;7.00;5.00
72307;PMS5003;60257;42.638;23.376;2023-03-14T14:50:36;9.25;7.25;4.50
72307;PMS5003;60257;42.638;23.376;2023-03-14T14:56:05;10.00;9.50;7.00
72307;PMS5003;60257;42.638;23.376;2023-03-14T14:58:34;6.50;6.50;4.00
72307;PMS5003;60257;42.638;23.376;2023-03-14T15:01:15;6.75;5.75;3.75